• Join FlightAware (Why Join?)
  • Login
  • US Flag 
05:35AM EST


 

Airport Tracker/Info


-or-


 

Live Flight TrackerFlight Track Log ✈ N814GV ✈ 11-Aug-2013 ✈ PAAQ / PAQ - PAOT / OTZ

Flight Track Log - Related Links

Times and Time Zones

All times are in EDT time to prevent confusion due to time zone crossing. See the N814GV flight status page for this flight to view local times or setup timezone preferences in your user account.

Time Position Orientation Groundspeed Altitude Reporting Facility
EDT Latitude Longitude Course Direction KTS MPH feet Rate Location/Type
04:08PM 61.7167 -149.7833 317° Northwest 130 150 7,100  Level Anchorage Center
04:09PM 61.7500 -149.8500 317° Northwest 140 161 7,700 600 Climbing Anchorage Center
04:10PM 61.7667 -149.9167 298° West 150 173 8,300 540 Climbing Anchorage Center
04:11PM 61.8000 -149.9833 317° Northwest 150 173 8,800 540 Climbing Anchorage Center
04:12PM 61.8333 -150.0333 325° Northwest 130 150 9,400 600 Climbing Anchorage Center
04:13PM 61.8667 -150.1000 317° Northwest 150 173 10,000 540 Climbing Anchorage Center
04:14PM 61.8833 -150.1667 298° West 140 161 10,500 480 Climbing Anchorage Center
04:15PM 61.9167 -150.2167 325° Northwest 140 161 11,000 360 Climbing Anchorage Center
04:16PM 61.9500 -150.2833 317° Northwest 140 161 11,300 300 Climbing Anchorage Center
04:17PM 61.9833 -150.3333 325° Northwest 150 173 11,700 300 Climbing Anchorage Center
04:18PM 62.0000 -150.4000 298° West 150 173 12,000 300 Climbing Anchorage Center
04:19PM 62.0333 -150.4500 325° Northwest 150 173 12,400 300 Climbing Anchorage Center
04:20PM 62.0667 -150.5167 317° Northwest 150 173 12,700 300 Climbing Anchorage Center
04:21PM 62.1000 -150.5833 317° Northwest 150 173 13,000 300 Climbing Anchorage Center
04:22PM 62.1333 -150.6500 317° Northwest 150 173 13,300 300 Climbing Anchorage Center
04:23PM 62.1500 -150.7000 306° West 150 173 13,600 300 Climbing Anchorage Center
04:24PM 62.1833 -150.7667 317° Northwest 160 184 13,900 300 Climbing Anchorage Center
04:25PM 62.2167 -150.8333 317° Northwest 160 184 14,200 240 Climbing Anchorage Center
04:26PM 62.2500 -150.9000 317° Northwest 160 184 14,400 240 Climbing Anchorage Center
04:27PM 62.2833 -150.9667 317° Northwest 160 184 14,700 120 Climbing Anchorage Center
04:28PM 62.3167 -151.0333 317° Northwest 170 196 14,700  Level Anchorage Center
04:29PM 62.3500 -151.1167 311° West 190 219 14,700  Level Anchorage Center
04:30PM 62.4000 -151.2000 322° Northwest 190 219 14,700  Level Anchorage Center
04:31PM 62.4333 -151.2667 317° Northwest 190 219 14,700  Level Anchorage Center
04:32PM 62.4667 -151.3500 311° West 190 219 14,700  Level Anchorage Center
04:33PM 62.5167 -151.4333 322° Northwest 190 219 14,700 -60 Level Anchorage Center
04:34PM 62.5500 -151.5000 317° Northwest 190 219 14,600 -120 Descending Anchorage Center
04:35PM 62.6000 -151.5833 323° Northwest 190 219 14,500 -60 Descending Anchorage Center
04:36PM 62.6333 -151.6667 311° West 190 219 14,500  Level Anchorage Center
04:37PM 62.6667 -151.7333 317° Northwest 190 219 14,500  Level Anchorage Center
04:38PM 62.7167 -151.8167 323° Northwest 190 219 14,500  Level Anchorage Center
04:39PM 62.7500 -151.8833 318° Northwest 180 207 14,500  Level Anchorage Center
04:40PM 62.7833 -151.9667 311° West 190 219 14,500  Level Anchorage Center
04:41PM 62.8167 -152.0500 311° West 180 207 14,500  Level Anchorage Center
04:42PM 62.8667 -152.1167 329° Northwest 180 207 14,600  Climbing Anchorage Center
04:43PM 62.9000 -152.2000 311° West 180 207 14,600  Level Anchorage Center
04:44PM 62.9333 -152.2833 311° West 180 207 14,600  Level Anchorage Center
04:45PM 62.9667 -152.3667 311° West 180 207 14,600  Level Anchorage Center
04:46PM 63.0000 -152.4333 318° Northwest 180 207 14,600  Level Anchorage Center
04:47PM 63.0500 -152.5167 323° Northwest 180 207 14,600  Level Anchorage Center
04:48PM 63.0833 -152.6000 311° West 180 207 14,600  Level Anchorage Center
04:49PM 63.1167 -152.6833 312° West 180 207 14,600  Level Anchorage Center
04:50PM 63.1500 -152.7500 318° Northwest 180 207 14,600  Level Anchorage Center
04:51PM 63.1833 -152.8333 312° West 180 207 14,600  Level Anchorage Center
04:52PM 63.2333 -152.9167 323° Northwest 180 207 14,600  Level Anchorage Center
04:53PM 63.2667 -152.9833 318° Northwest 180 207 14,600  Level Anchorage Center
04:54PM 63.3000 -153.0667 312° West 180 207 14,600  Level Anchorage Center
04:55PM 63.3333 -153.1333 318° Northwest 180 207 14,600  Level Anchorage Center
04:56PM 63.3833 -153.2000 329° Northwest 180 207 14,600  Level Anchorage Center
04:57PM 63.4167 -153.2833 312° West 180 207 14,600  Level Anchorage Center
04:58PM 63.4500 -153.3667 312° West 180 207 14,600  Level Anchorage Center
04:59PM 63.4833 -153.4333 318° Northwest 180 207 14,600  Level Anchorage Center
05:00PM 63.5333 -153.5167 323° Northwest 180 207 14,600  Level Anchorage Center
05:01PM 63.5667 -153.5833 318° Northwest 170 196 14,600  Level Anchorage Center
05:02PM 63.6000 -153.6667 312° West 170 196 14,600  Level Anchorage Center
05:03PM 63.6333 -153.7333 318° Northwest 170 196 14,600  Level Anchorage Center
05:04PM 63.6667 -153.8167 312° West 170 196 14,600  Level Anchorage Center
05:05PM 63.7000 -153.8833 318° Northwest 170 196 14,600  Level Anchorage Center
05:06PM 63.7333 -153.9667 312° West 170 196 14,600  Level Anchorage Center
05:07PM 63.7667 -154.0333 319° Northwest 170 196 14,600  Level Anchorage Center
05:08PM 63.8000 -154.1167 312° West 170 196 14,600  Level Anchorage Center
05:09PM 63.8333 -154.2000 312° West 170 196 14,600  Level Anchorage Center
05:10PM 63.8667 -154.2667 319° Northwest 170 196 14,600  Level Anchorage Center
05:11PM 63.9000 -154.3500 312° West 170 196 14,600  Level Anchorage Center
05:12PM 63.9333 -154.4333 312° West 180 207 14,600  Level Anchorage Center
05:13PM 63.9667 -154.5000 319° Northwest 180 207 14,600  Level Anchorage Center
05:14PM 64.0000 -154.5833 312° West 180 207 14,600  Level Anchorage Center
05:15PM 64.0333 -154.6667 312° West 180 207 14,600  Level Anchorage Center
05:16PM 64.0667 -154.7500 312° West 180 207 14,600  Level Anchorage Center
05:17PM 64.1000 -154.8333 313° West 180 207 14,600  Level Anchorage Center
05:18PM 64.1333 -154.9167 313° West 170 196 14,600  Level Anchorage Center
05:19PM 64.1667 -154.9833 319° Northwest 180 207 14,600  Level Anchorage Center
05:20PM 64.2000 -155.0667 313° West 180 207 14,600  Level Anchorage Center
05:21PM 64.2500 -155.1500 324° Northwest 180 207 14,600  Level Anchorage Center
05:22PM 64.2833 -155.2333 313° West 180 207 14,600  Level Anchorage Center
05:23PM 64.3167 -155.3167 313° West 180 207 14,600  Level Anchorage Center
05:25PM 64.3833 -155.4833 313° West 180 207 14,600  Level Anchorage Center
05:26PM 64.4167 -155.5667 313° West 180 207 14,600  Level Anchorage Center
05:27PM 64.4500 -155.6667 308° West 180 207 14,600  Level Anchorage Center
05:28PM 64.4833 -155.7500 313° West 180 207 14,600  Level Anchorage Center
05:29PM 64.5167 -155.8333 313° West 180 207 14,600  Level Anchorage Center
05:30PM 64.5500 -155.9167 313° West 180 207 14,600  Level Anchorage Center
05:31PM 64.5833 -156.0000 313° West 180 207 14,600  Level Anchorage Center
05:32PM 64.6167 -156.0833 313° West 180 207 14,600  Level Anchorage Center
05:33PM 64.6500 -156.1500 319° Northwest 180 207 14,600  Level Anchorage Center
05:34PM 64.6833 -156.2500 308° West 180 207 14,600  Level Anchorage Center
05:35PM 64.7167 -156.3333 313° West 180 207 14,600  Level Anchorage Center
05:36PM 64.7667 -156.4333 320° Northwest 200 230 14,600  Level Anchorage Center
05:37PM 64.8000 -156.5167 313° West 180 207 14,600  Level Anchorage Center
05:38PM 64.8333 -156.6000 313° West 180 207 14,600  Level Anchorage Center
05:39PM 64.8667 -156.6833 313° West 170 196 14,600  Level Anchorage Center
05:40PM 64.9000 -156.7833 308° West 180 207 14,600  Level Anchorage Center
05:41PM 64.9333 -156.8667 313° West 180 207 14,600  Level Anchorage Center
05:42PM 64.9667 -156.9500 313° West 170 196 14,600  Level Anchorage Center
05:43PM 64.9833 -157.0333 295° West 170 196 14,600  Level Anchorage Center
05:44PM 65.0333 -157.1167 325° Northwest 180 207 14,600  Level Anchorage Center
05:45PM 65.0500 -157.2000 295° West 170 196 14,600  Level Anchorage Center
05:46PM 65.0833 -157.2667 320° Northwest 160 184 14,600  Level Anchorage Center
05:47PM 65.1167 -157.3667 308° West 180 207 14,600 -120 Level Anchorage Center
05:48PM 65.1500 -157.4500 314° West 160 184 14,400 -360 Descending Anchorage Center
05:49PM 65.1833 -157.5500 308° West 200 230 13,900 -540 Descending Anchorage Center
05:50PM 65.2333 -157.6333 325° Northwest 200 230 13,400 -540 Descending Anchorage Center
05:51PM 65.2667 -157.7333 309° West 190 219 12,900 -540 Descending Anchorage Center
05:52PM 65.3000 -157.8333 309° West 200 230 12,400 -480 Descending Anchorage Center
05:53PM 65.3333 -157.9333 309° West 190 219 12,000 -240 Descending Anchorage Center
05:54PM 65.3667 -158.0333 309° West 180 207 12,000  Level Anchorage Center
05:55PM 65.4000 -158.1167 314° West 180 207 12,000  Level Anchorage Center
05:56PM 65.4500 -158.2167 320° Northwest 210 242 12,000  Level Anchorage Center
05:57PM 65.4667 -158.3000 296° West 170 196 12,000  Level Anchorage Center
05:58PM 65.5000 -158.4000 309° West 180 207 12,000  Level Anchorage Center
05:59PM 65.5333 -158.4833 314° West 170 196 12,000  Level Anchorage Center
06:00PM 65.5667 -158.5833 309° West 170 196 12,000  Level Anchorage Center
06:01PM 65.6000 -158.6667 314° West 180 207 12,000  Level Anchorage Center
06:02PM 65.6167 -158.7500 296° West 170 196 12,000  Level Anchorage Center
06:03PM 65.6500 -158.8500 309° West 190 219 12,000  Level Anchorage Center
06:04PM 65.6833 -158.9500 309° West 170 196 12,000  Level Anchorage Center
06:05PM 65.7167 -159.0500 309° West 170 196 12,000  Level Anchorage Center
06:06PM 65.7500 -159.1333 314° West 170 196 12,000  Level Anchorage Center
06:07PM 65.7833 -159.2333 309° West 180 207 12,000  Level Anchorage Center
06:08PM 65.8167 -159.3333 309° West 180 207 12,000  Level Anchorage Center
06:09PM 65.8500 -159.4167 314° West 170 196 12,000  Level Anchorage Center
06:10PM 65.8667 -159.5000 296° West 180 207 12,000  Level Anchorage Center
06:11PM 65.9000 -159.6000 309° West 180 207 12,000  Level Anchorage Center
06:12PM 65.9333 -159.7000 309° West 180 207 12,000  Level Anchorage Center
06:13PM 65.9667 -159.7833 315° West 170 196 12,000  Level Anchorage Center
06:14PM 66.0000 -159.8833 309° West 170 196 12,000 -60 Level Anchorage Center
06:15PM 66.0333 -159.9667 315° West 180 207 11,900 -240 Descending Anchorage Center
06:16PM 66.0667 -160.0667 309° West 190 219 11,600 -360 Descending Anchorage Center
06:17PM 66.1000 -160.1667 309° West 190 219 11,200 -480 Descending Anchorage Center
06:18PM 66.1333 -160.2667 310° West 190 219 10,700 -540 Descending Anchorage Center
06:19PM 66.1667 -160.3667 310° West 200 230 10,200 -540 Descending Anchorage Center
06:20PM 66.2167 -160.4667 321° Northwest 200 230 9,700 -540 Descending Anchorage Center
06:21PM 66.2500 -160.5667 310° West 190 219 9,200 -540 Descending Anchorage Center
06:22PM 66.2833 -160.6667 310° West 190 219 8,700 -600 Descending Anchorage Center
06:23PM 66.3167 -160.7667 310° West 190 219 8,100 -600 Descending Anchorage Center
06:24PM 66.3500 -160.8833 305° West 200 230 7,500 -660 Descending Anchorage Center
06:25PM 66.3833 -160.9833 310° West 190 219 6,800 -660 Descending Anchorage Center
06:26PM 66.4167 -161.0833 310° West 190 219 6,200 -600 Descending Anchorage Center
06:27PM 66.4500 -161.1833 310° West 190 219 5,700 -600 Descending Anchorage Center
06:28PM 66.4833 -161.3000 306° West 190 219 5,100 -600 Descending Anchorage Center
06:29PM 66.5167 -161.4000 310° West 190 219 4,600 -540 Descending Anchorage Center
06:30PM 66.5500 -161.5000 310° West 190 219 4,100 -300 Descending Anchorage Center
06:31PM 66.5833 -161.6000 310° West 170 196 4,000 -60 Descending Anchorage Center
06:32PM 66.6167 -161.6833 315° West 170 196 4,000  Level Anchorage Center
06:33PM 66.6333 -161.7667 297° West 170 196 4,000 -300 Level Anchorage Center
06:34PM 66.6667 -161.8667 310° West 180 207 3,400 -600 Descending Anchorage Center
06:35PM 66.7000 -161.9667 310° West 180 207 2,900 -600 Descending Anchorage Center
06:36PM 66.7333 -162.0667 310° West 180 207 2,200 -480 Descending Anchorage Center
06:37PM 66.7667 -162.1667 310° West 170 196 2,000 -240 Descending Anchorage Center
06:38PM 66.8000 -162.2500 315° West 170 196 1,800 -360 Descending Anchorage Center
06:39PM 66.8167 -162.3500 293° West 180 207 1,300 -480 Descending Anchorage Center
06:40PM 66.8500 -162.4333 316° Northwest 170 196 900 -420 Descending Anchorage Center
06:43PM 66.8833 -162.5833 307° West  Level FlightAware Approximate
06:50PM 66.8847 -162.5985 307° West  Level Estimated
06:51PM 66.8833 -162.5833 307° West  Level FlightAware Approximate
06:52PM 66.8847 -162.5985 307° West  Level Estimated
06:53PM 66.8833 -162.5833 307° West  Level FlightAware Approximate
06:54PM 66.8847 -162.5985 307° West  Level Estimated
06:55PM 66.8833 -162.5833 307° West  Level FlightAware Approximate
06:56PM 66.8847 -162.5985 307° West  Level Estimated
06:57PM 66.8833 -162.5833 307° West  Level FlightAware Approximate
06:58PM 66.8847 -162.5985 307° West  Level Estimated
06:59PM 66.8833 -162.5833 307° West  Level FlightAware Approximate
07:00PM 66.8847 -162.5985 307° West  Level Estimated
07:01PM 66.8833 -162.5833 307° West  Level FlightAware Approximate
07:02PM 66.8847 -162.5985 307° West  Level Estimated
07:03PM 66.8833 -162.5833 307° West  Level FlightAware Approximate